Azamara Quest — V7DM6 — position and weather

sailwx.info

Track history (hours):
 
Tides and Currents Weather Stations Pressure Air Temp Water Temp Dewpoint Dewpoint Depression Visibility Wind Speed Wind Dir Waves Ship Positions

Azamara Quest

Last reported at 2017-Oct-20 18:20 UTC. Time now 2017-Oct-20 19:50 UTC.
Position N 54°09' E 012°08'.

Length 184 m; draft 10.6 m.

Type: Ship. MMSI: 538005401.

Date/timePositionNaut miles runAvg speedWind from/ knotsBaromVisibWave heightAir tempDewpointWater temp
2017-Oct-20 18:20N 54°09' E 012°08'0 0.0
2017-Oct-20 17:59N 54°09' E 012°08'0 0.0
2017-Oct-20 17:29N 54°09' E 012°08'0 0.0
2017-Oct-20 16:56N 54°09' E 012°08'0 0.0
2017-Oct-20 15:23N 54°09' E 012°08'0 0.0
2017-Oct-20 14:53N 54°09' E 012°08'0 0.0
2017-Oct-20 13:23N 54°09' E 012°08'0 0.0
2017-Oct-20 12:56N 54°09' E 012°08'0 0.0
2017-Oct-20 12:26N 54°09' E 012°08'0 0.0
2017-Oct-20 11:56N 54°09' E 012°08'0 0.0
2017-Oct-20 10:38N 54°09' E 012°08'0 0.0
2017-Oct-20 10:29N 54°09' E 012°08'0 0.0
2017-Oct-20 09:59N 54°09' E 012°08'0 0.0
2017-Oct-20 09:26N 54°09' E 012°08'0 0.0
2017-Oct-20 08:56N 54°09' E 012°08'0 0.0
2017-Oct-20 05:32N 54°09' E 012°08'0 0.0
2017-Oct-20 05:29N 54°09' E 012°08'0 0.0
2017-Oct-20 03:41N 54°09' E 012°08'0 0.0
2017-Oct-19 13:17N 54°09' E 012°08'0 0.0
2017-Oct-19 12:59N 54°09' E 012°08'0 0.0
2017-Oct-19 11:02N 54°09' E 012°08'0 0.0
2017-Oct-19 10:53N 54°09' E 012°08'2 0.6
2017-Oct-19 07:50N 54°11' E 012°06'3 9.2
2017-Oct-19 07:30N 54°14' E 012°04'4 6.7
2017-Oct-19 06:58N 54°14' E 011°58'0 0.2
2017-Oct-19 05:09N 54°14' E 011°57'0 0.0
2017-Oct-19 05:00N 54°14' E 011°57'0 0.0
2017-Oct-19 04:27N 54°14' E 011°57'0 0.0
2017-Oct-19 01:30N 54°14' E 011°57'0 0.0
2017-Oct-18 23:33N 54°14' E 011°57'0 0.1
2017-Oct-18 23:30N 54°14' E 011°57'0 0.0
2017-Oct-18 22:59N 54°14' E 011°57'0 0.0
2017-Oct-18 22:30N 54°14' E 011°57'0 0.0
2017-Oct-18 16:30N 54°14' E 011°57'0 0.1
2017-Oct-18 15:39N 54°14' E 011°57'1 4.9
2017-Oct-18 15:21N 54°16' E 011°57'1410.3
2017-Oct-18 14:00N 54°27' E 012°11'713.6
2017-Oct-18 13:30N 54°33' E 012°15'612.7
2017-Oct-18 13:00N 54°38' E 012°21'6013.3
2017-Oct-18 08:27N 55°03' E 013°57'912.8
2017-Oct-18 07:43N 55°09' E 014°10'312.8
2017-Oct-18 07:30N 55°11' E 014°13'712.5
2017-Oct-18 06:55N 55°17' E 014°21'512.5
2017-Oct-18 06:30N 55°21' E 014°27'612.5
2017-Oct-18 06:00N 55°25' E 014°34'611.9
2017-Oct-18 05:30N 55°29' E 014°43'612.0
2017-Oct-18 04:59N 55°32' E 014°53'612.2
2017-Oct-18 04:30N 55°34' E 015°02'612.2
2017-Oct-18 04:00N 55°37' E 015°12'612.1
2017-Oct-18 03:30N 55°39' E 015°22'611.8
2017-Oct-18 03:00N 55°41' E 015°32'612.0
2017-Oct-18 02:30N 55°42' E 015°42'612.0
2017-Oct-18 02:00N 55°44' E 015°52'611.7
2017-Oct-18 01:30N 55°45' E 016°02'611.9
2017-Oct-18 01:00N 55°47' E 016°12'611.8
2017-Oct-18 00:30N 55°48' E 016°23'611.8
2017-Oct-18 00:00N 55°50' E 016°33'612.0
2017-Oct-17 23:29N 55°51' E 016°44'10911.4
2017-Oct-17 13:56N 56°57' E 019°21'19512.6
2017-Oct-16 22:32N 59°35' E 022°56'113.2
2017-Oct-16 22:30N 59°35' E 022°57'713.2
2017-Oct-16 22:00N 59°37' E 023°10'713.3
2017-Oct-16 21:30N 59°38' E 023°23'713.3
2017-Oct-16 21:00N 59°40' E 023°35'713.3
2017-Oct-16 20:30N 59°42' E 023°48'713.0
2017-Oct-16 19:59N 59°44' E 024°01'613.0
2017-Oct-16 19:30N 59°46' E 024°13'612.9
2017-Oct-16 19:00N 59°47' E 024°25'612.7
2017-Oct-16 18:30N 59°49' E 024°37'612.5
2017-Oct-16 18:00N 59°50' E 024°49'612.6
2017-Oct-16 17:30N 59°51' E 025°02'3612.5
2017-Oct-16 14:38N 59°59' E 026°12'812.4
2017-Oct-16 14:00N 60°01' E 026°27'612.0
2017-Oct-16 13:30N 60°01' E 026°39'612.2
2017-Oct-16 13:00N 60°00' E 026°51'612.3
2017-Oct-16 12:30N 59°60' E 027°03'612.4
2017-Oct-16 12:00N 60°03' E 027°14'612.2
2017-Oct-16 11:30N 60°06' E 027°24'612.2
2017-Oct-16 11:00N 60°09' E 027°35'612.0
2017-Oct-16 10:30N 60°12' E 027°45'611.7
2017-Oct-16 10:00N 60°17' E 027°53'611.9
2017-Oct-16 09:30N 60°22' E 027°60'510.8
2017-Oct-16 09:00N 60°25' E 028°08'4 7.7
2017-Oct-16 08:30N 60°27' E 028°15'3 0.1
2017-Oct-14 12:46N 60°28' E 028°21'313.3
2017-Oct-14 12:30N 60°26' E 028°16'611.2
2017-Oct-14 12:01N 60°24' E 028°05'5 9.7
2017-Oct-14 11:31N 60°20' E 028°01'0 0.3
2017-Oct-14 11:00N 60°20' E 028°01'0 0.0
2017-Oct-14 10:30N 60°20' E 028°01'0 0.0
2017-Oct-14 10:00N 60°20' E 028°01'0 0.0
2017-Oct-14 09:30N 60°20' E 028°01'0 0.0
2017-Oct-14 09:00N 60°20' E 028°01'0 0.0
2017-Oct-14 08:30N 60°20' E 028°01'0 0.0
2017-Oct-14 08:00N 60°20' E 028°01'0 0.0
2017-Oct-14 07:30N 60°20' E 028°01'0 0.0
2017-Oct-14 07:00N 60°20' E 028°01'0 0.0
2017-Oct-14 06:30N 60°20' E 028°01'0 0.0
2017-Oct-14 06:00N 60°20' E 028°01'0 0.0
2017-Oct-14 05:30N 60°20' E 028°01'0 0.0
2017-Oct-14 05:00N 60°20' E 028°01'0 0.0
2017-Oct-14 04:30N 60°20' E 028°01'0 0.0
2017-Oct-14 04:00N 60°20' E 028°01'0 0.0
2017-Oct-14 03:30N 60°20' E 028°01'0 0.0
2017-Oct-14 03:00N 60°20' E 028°01'0 0.0
2017-Oct-14 02:30N 60°20' E 028°01'0 0.0
2017-Oct-14 02:00N 60°20' E 028°01'0 0.0
2017-Oct-14 00:09N 60°20' E 028°01'0 0.6
2017-Oct-13 23:54N 60°20' E 028°01'2 3.7
2017-Oct-13 23:28N 60°19' E 027°59'511.7
2017-Oct-13 23:01N 60°15' E 027°52'612.7
2017-Oct-13 22:31N 60°10' E 027°43'713.0
2017-Oct-13 22:01N 60°06' E 027°32'713.0
2017-Oct-13 21:31N 60°03' E 027°21'613.0
2017-Oct-13 21:01N 59°60' E 027°10'612.4
2017-Oct-13 20:31N 59°58' E 026°58'713.4
2017-Oct-13 20:01N 59°59' E 026°45'612.7
2017-Oct-13 19:31N 59°58' E 026°32'612.9
2017-Oct-13 19:00N 59°57' E 026°20'2813.1
2017-Oct-13 16:50N 59°50' E 025°25'413.4
2017-Oct-13 16:30N 59°49' E 025°16'713.4
2017-Oct-13 16:00N 59°48' E 025°03'713.4
2017-Oct-13 15:30N 59°46' E 024°50'713.1
2017-Oct-13 15:01N 59°45' E 024°37'612.7
2017-Oct-13 14:31N 59°44' E 024°25'712.9
2017-Oct-13 13:59N 59°42' E 024°12'712.8
2017-Oct-13 13:28N 59°40' E 023°60'613.0
2017-Oct-13 13:00N 59°38' E 023°48'612.8
2017-Oct-13 12:30N 59°36' E 023°36'712.6
2017-Oct-13 11:59N 59°34' E 023°24'612.2
2017-Oct-13 11:28N 59°32' E 023°13'29611.9
2017-Oct-12 10:33N 56°01' E 016°42'113.4
2017-Oct-12 10:29N 56°01' E 016°41'613.1
2017-Oct-12 10:00N 55°58' E 016°31'612.9
2017-Oct-12 09:30N 55°55' E 016°21'612.8
2017-Oct-12 09:00N 55°52' E 016°11'612.9
2017-Oct-12 08:30N 55°49' E 016°01'713.0
2017-Oct-12 08:00N 55°45' E 015°51'713.2
2017-Oct-12 07:30N 55°42' E 015°41'713.2
2017-Oct-12 07:00N 55°38' E 015°31'713.2
2017-Oct-12 06:30N 55°35' E 015°21'713.1
2017-Oct-12 06:00N 55°32' E 015°10'713.2
2017-Oct-12 05:30N 55°29' E 014°60'613.1
2017-Oct-12 05:00N 55°26' E 014°50'713.0
2017-Oct-12 04:30N 55°23' E 014°39'713.2
2017-Oct-12 04:00N 55°18' E 014°32'713.1
2017-Oct-12 03:30N 55°13' E 014°25'611.8
2017-Oct-12 03:00N 55°10' E 014°17'3113.0
2017-Oct-12 00:36N 55°13' E 013°22'212.9
2017-Oct-12 00:29N 55°13' E 013°20'612.9
2017-Oct-12 00:00N 55°14' E 013°09'612.7
2017-Oct-11 23:30N 55°14' E 012°58'713.0
2017-Oct-11 23:00N 55°16' E 012°47'611.7
2017-Oct-11 22:30N 55°19' E 012°38'612.6
2017-Oct-11 22:00N 55°25' E 012°40'612.3
2017-Oct-11 21:30N 55°31' E 012°42'5 9.6
2017-Oct-11 21:00N 55°36' E 012°42'611.4
2017-Oct-11 20:30N 55°42' E 012°41'714.0
2017-Oct-11 20:01N 55°49' E 012°42'714.1
2017-Oct-11 19:31N 55°55' E 012°38'714.0
2017-Oct-11 19:00N 56°02' E 012°38'612.8
2017-Oct-11 18:30N 56°07' E 012°31'612.0
2017-Oct-11 18:00N 56°11' E 012°22'  
Track history (hours):
 
Tides and Currents Weather Stations Pressure Air Temp Water Temp Dewpoint Dewpoint Depression Visibility Wind Speed Wind Dir Waves Ship Positions

Azamara Quest

Last reported at 2017-Oct-20 18:20 UTC. Time now 2017-Oct-20 19:50 UTC.
Position N 54°09' E 012°08'.

Length 184 m; draft 10.6 m.

Type: Ship. MMSI: 538005401.

Date/timePositionNaut miles runAvg speedWind from/ knotsBaromVisibWave heightAir tempDewpointWater temp
2017-Oct-20 18:20N 54°09' E 012°08'0 0.0
2017-Oct-20 17:59N 54°09' E 012°08'0 0.0
2017-Oct-20 17:29N 54°09' E 012°08'0 0.0
2017-Oct-20 16:56N 54°09' E 012°08'0 0.0
2017-Oct-20 15:23N 54°09' E 012°08'0 0.0
2017-Oct-20 14:53N 54°09' E 012°08'0 0.0
2017-Oct-20 13:23N 54°09' E 012°08'0 0.0
2017-Oct-20 12:56N 54°09' E 012°08'0 0.0
2017-Oct-20 12:26N 54°09' E 012°08'0 0.0
2017-Oct-20 11:56N 54°09' E 012°08'0 0.0
2017-Oct-20 10:38N 54°09' E 012°08'0 0.0
2017-Oct-20 10:29N 54°09' E 012°08'0 0.0
2017-Oct-20 09:59N 54°09' E 012°08'0 0.0
2017-Oct-20 09:26N 54°09' E 012°08'0 0.0
2017-Oct-20 08:56N 54°09' E 012°08'0 0.0
2017-Oct-20 05:32N 54°09' E 012°08'0 0.0
2017-Oct-20 05:29N 54°09' E 012°08'0 0.0
2017-Oct-20 03:41N 54°09' E 012°08'0 0.0
2017-Oct-19 13:17N 54°09' E 012°08'0 0.0
2017-Oct-19 12:59N 54°09' E 012°08'0 0.0
2017-Oct-19 11:02N 54°09' E 012°08'0 0.0
2017-Oct-19 10:53N 54°09' E 012°08'2 0.6
2017-Oct-19 07:50N 54°11' E 012°06'3 9.2
2017-Oct-19 07:30N 54°14' E 012°04'4 6.7
2017-Oct-19 06:58N 54°14' E 011°58'0 0.2
2017-Oct-19 05:09N 54°14' E 011°57'0 0.0
2017-Oct-19 05:00N 54°14' E 011°57'0 0.0
2017-Oct-19 04:27N 54°14' E 011°57'0 0.0
2017-Oct-19 01:30N 54°14' E 011°57'0 0.0
2017-Oct-18 23:33N 54°14' E 011°57'0 0.1
2017-Oct-18 23:30N 54°14' E 011°57'0 0.0
2017-Oct-18 22:59N 54°14' E 011°57'0 0.0
2017-Oct-18 22:30N 54°14' E 011°57'0 0.0
2017-Oct-18 16:30N 54°14' E 011°57'0 0.1
2017-Oct-18 15:39N 54°14' E 011°57'1 4.9
2017-Oct-18 15:21N 54°16' E 011°57'1410.3
2017-Oct-18 14:00N 54°27' E 012°11'713.6
2017-Oct-18 13:30N 54°33' E 012°15'612.7
2017-Oct-18 13:00N 54°38' E 012°21'6013.3
2017-Oct-18 08:27N 55°03' E 013°57'912.8
2017-Oct-18 07:43N 55°09' E 014°10'312.8
2017-Oct-18 07:30N 55°11' E 014°13'712.5
2017-Oct-18 06:55N 55°17' E 014°21'512.5
2017-Oct-18 06:30N 55°21' E 014°27'612.5
2017-Oct-18 06:00N 55°25' E 014°34'611.9
2017-Oct-18 05:30N 55°29' E 014°43'612.0
2017-Oct-18 04:59N 55°32' E 014°53'612.2
2017-Oct-18 04:30N 55°34' E 015°02'612.2
2017-Oct-18 04:00N 55°37' E 015°12'612.1
2017-Oct-18 03:30N 55°39' E 015°22'611.8
2017-Oct-18 03:00N 55°41' E 015°32'612.0
2017-Oct-18 02:30N 55°42' E 015°42'612.0
2017-Oct-18 02:00N 55°44' E 015°52'611.7
2017-Oct-18 01:30N 55°45' E 016°02'611.9
2017-Oct-18 01:00N 55°47' E 016°12'611.8
2017-Oct-18 00:30N 55°48' E 016°23'611.8
2017-Oct-18 00:00N 55°50' E 016°33'612.0
2017-Oct-17 23:29N 55°51' E 016°44'10911.4
2017-Oct-17 13:56N 56°57' E 019°21'19512.6
2017-Oct-16 22:32N 59°35' E 022°56'113.2
2017-Oct-16 22:30N 59°35' E 022°57'713.2
2017-Oct-16 22:00N 59°37' E 023°10'713.3
2017-Oct-16 21:30N 59°38' E 023°23'713.3
2017-Oct-16 21:00N 59°40' E 023°35'713.3
2017-Oct-16 20:30N 59°42' E 023°48'713.0
2017-Oct-16 19:59N 59°44' E 024°01'613.0
2017-Oct-16 19:30N 59°46' E 024°13'612.9
2017-Oct-16 19:00N 59°47' E 024°25'612.7
2017-Oct-16 18:30N 59°49' E 024°37'612.5
2017-Oct-16 18:00N 59°50' E 024°49'612.6
2017-Oct-16 17:30N 59°51' E 025°02'3612.5
2017-Oct-16 14:38N 59°59' E 026°12'812.4
2017-Oct-16 14:00N 60°01' E 026°27'612.0
2017-Oct-16 13:30N 60°01' E 026°39'612.2
2017-Oct-16 13:00N 60°00' E 026°51'612.3
2017-Oct-16 12:30N 59°60' E 027°03'612.4
2017-Oct-16 12:00N 60°03' E 027°14'612.2
2017-Oct-16 11:30N 60°06' E 027°24'612.2
2017-Oct-16 11:00N 60°09' E 027°35'612.0
2017-Oct-16 10:30N 60°12' E 027°45'611.7
2017-Oct-16 10:00N 60°17' E 027°53'611.9
2017-Oct-16 09:30N 60°22' E 027°60'510.8
2017-Oct-16 09:00N 60°25' E 028°08'4 7.7
2017-Oct-16 08:30N 60°27' E 028°15'3 0.1
2017-Oct-14 12:46N 60°28' E 028°21'313.3
2017-Oct-14 12:30N 60°26' E 028°16'611.2
2017-Oct-14 12:01N 60°24' E 028°05'5 9.7
2017-Oct-14 11:31N 60°20' E 028°01'0 0.3
2017-Oct-14 11:00N 60°20' E 028°01'0 0.0
2017-Oct-14 10:30N 60°20' E 028°01'0 0.0
2017-Oct-14 10:00N 60°20' E 028°01'0 0.0
2017-Oct-14 09:30N 60°20' E 028°01'0 0.0
2017-Oct-14 09:00N 60°20' E 028°01'0 0.0
2017-Oct-14 08:30N 60°20' E 028°01'0 0.0
2017-Oct-14 08:00N 60°20' E 028°01'0 0.0
2017-Oct-14 07:30N 60°20' E 028°01'0 0.0
2017-Oct-14 07:00N 60°20' E 028°01'0 0.0
2017-Oct-14 06:30N 60°20' E 028°01'0 0.0
2017-Oct-14 06:00N 60°20' E 028°01'0 0.0
2017-Oct-14 05:30N 60°20' E 028°01'0 0.0
2017-Oct-14 05:00N 60°20' E 028°01'0 0.0
2017-Oct-14 04:30N 60°20' E 028°01'0 0.0
2017-Oct-14 04:00N 60°20' E 028°01'0 0.0
2017-Oct-14 03:30N 60°20' E 028°01'0 0.0
2017-Oct-14 03:00N 60°20' E 028°01'0 0.0
2017-Oct-14 02:30N 60°20' E 028°01'0 0.0
2017-Oct-14 02:00N 60°20' E 028°01'0 0.0
2017-Oct-14 00:09N 60°20' E 028°01'0 0.6
2017-Oct-13 23:54N 60°20' E 028°01'2 3.7
2017-Oct-13 23:28N 60°19' E 027°59'511.7
2017-Oct-13 23:01N 60°15' E 027°52'612.7
2017-Oct-13 22:31N 60°10' E 027°43'713.0
2017-Oct-13 22:01N 60°06' E 027°32'713.0
2017-Oct-13 21:31N 60°03' E 027°21'613.0
2017-Oct-13 21:01N 59°60' E 027°10'612.4
2017-Oct-13 20:31N 59°58' E 026°58'713.4
2017-Oct-13 20:01N 59°59' E 026°45'612.7
2017-Oct-13 19:31N 59°58' E 026°32'612.9
2017-Oct-13 19:00N 59°57' E 026°20'2813.1
2017-Oct-13 16:50N 59°50' E 025°25'413.4
2017-Oct-13 16:30N 59°49' E 025°16'713.4
2017-Oct-13 16:00N 59°48' E 025°03'713.4
2017-Oct-13 15:30N 59°46' E 024°50'713.1
2017-Oct-13 15:01N 59°45' E 024°37'612.7
2017-Oct-13 14:31N 59°44' E 024°25'712.9
2017-Oct-13 13:59N 59°42' E 024°12'712.8
2017-Oct-13 13:28N 59°40' E 023°60'613.0
2017-Oct-13 13:00N 59°38' E 023°48'612.8
2017-Oct-13 12:30N 59°36' E 023°36'712.6
2017-Oct-13 11:59N 59°34' E 023°24'612.2
2017-Oct-13 11:28N 59°32' E 023°13'29611.9
2017-Oct-12 10:33N 56°01' E 016°42'113.4
2017-Oct-12 10:29N 56°01' E 016°41'613.1
2017-Oct-12 10:00N 55°58' E 016°31'612.9
2017-Oct-12 09:30N 55°55' E 016°21'612.8
2017-Oct-12 09:00N 55°52' E 016°11'612.9
2017-Oct-12 08:30N 55°49' E 016°01'713.0
2017-Oct-12 08:00N 55°45' E 015°51'713.2
2017-Oct-12 07:30N 55°42' E 015°41'713.2
2017-Oct-12 07:00N 55°38' E 015°31'713.2
2017-Oct-12 06:30N 55°35' E 015°21'713.1
2017-Oct-12 06:00N 55°32' E 015°10'713.2
2017-Oct-12 05:30N 55°29' E 014°60'613.1
2017-Oct-12 05:00N 55°26' E 014°50'713.0
2017-Oct-12 04:30N 55°23' E 014°39'713.2
2017-Oct-12 04:00N 55°18' E 014°32'713.1
2017-Oct-12 03:30N 55°13' E 014°25'611.8
2017-Oct-12 03:00N 55°10' E 014°17'3113.0
2017-Oct-12 00:36N 55°13' E 013°22'212.9
2017-Oct-12 00:29N 55°13' E 013°20'612.9
2017-Oct-12 00:00N 55°14' E 013°09'612.7
2017-Oct-11 23:30N 55°14' E 012°58'713.0
2017-Oct-11 23:00N 55°16' E 012°47'611.7
2017-Oct-11 22:30N 55°19' E 012°38'612.6
2017-Oct-11 22:00N 55°25' E 012°40'612.3
2017-Oct-11 21:30N 55°31' E 012°42'5 9.6
2017-Oct-11 21:00N 55°36' E 012°42'611.4
2017-Oct-11 20:30N 55°42' E 012°41'714.0
2017-Oct-11 20:01N 55°49' E 012°42'714.1
2017-Oct-11 19:31N 55°55' E 012°38'714.0
2017-Oct-11 19:00N 56°02' E 012°38'612.8
2017-Oct-11 18:30N 56°07' E 012°31'612.0
2017-Oct-11 18:00N 56°11' E 012°22'  

Dump ship's entire track history